Wetterdaten: Woche 07.06.10 - 13.06.10 (KW23)
Datum Zeit Temp. A. Feuchte A. Luftdruck Regen Wind Richtung Taupunkt Windchill Windben
07.06.2010 00:00 17,4 C 86 % 1013,3 hPa 0,0 l/m 1,3 km/h SW 15,0 C 17,4 C 0,7 km/h
07.06.2010 01:00 17,7 C 84 % 1013,2 hPa 0,0 l/m 3,9 km/h W-SW 15,0 C 17,7 C 2,2 km/h
07.06.2010 02:00 17,7 C 83 % 1012,9 hPa 0,0 l/m 19,4 km/h W-SW 14,8 C 13,4 C 10,8 km/h
07.06.2010 03:00 17,2 C 86 % 1013,3 hPa 0,0 l/m 0,0 km/h SW 14,8 C 17,2 C 0,0 km/h
07.06.2010 04:00 16,6 C 88 % 1013,1 hPa 0,0 l/m 0,0 km/h W 14,6 C 16,6 C 0,0 km/h
07.06.2010 05:00 16,6 C 88 % 1013,2 hPa 0,0 l/m 0,0 km/h W-SW 14,6 C 16,6 C 0,0 km/h
07.06.2010 06:00 16,9 C 87 % 1013,6 hPa 0,0 l/m 0,0 km/h W-SW 14,7 C 16,9 C 0,0 km/h
07.06.2010 07:00 17,3 C 85 % 1013,9 hPa 0,0 l/m 3,9 km/h SW 14,8 C 17,3 C 2,2 km/h
07.06.2010 08:00 17,8 C 83 % 1014,0 hPa 0,0 l/m 23,3 km/h W 14,9 C 12,7 C 13,0 km/h
07.06.2010 09:00 21,1 C 73 % 1014,2 hPa 0,0 l/m 8,4 km/h W 16,1 C 20,4 C 4,7 km/h
07.06.2010 10:00 25,9 C 59 % 1013,6 hPa 0,0 l/m 8,4 km/h W-SW 17,3 C 25,5 C 4,7 km/h
07.06.2010 11:00 24,9 C 59 % 1013,3 hPa 0,0 l/m 16,2 km/h W-NW 16,3 C 23,0 C 9,0 km/h
07.06.2010 12:00 22,8 C 60 % 1013,1 hPa 0,0 l/m 24,0 km/h W-SW 14,6 C 19,3 C 13,3 km/h
07.06.2010 13:00 26,5 C 53 % 1012,4 hPa 0,0 l/m 20,7 km/h W-NW 16,1 C 24,5 C 11,5 km/h
07.06.2010 14:00 26,8 C 48 % 1011,9 hPa 0,0 l/m 0,0 km/h W-NW 14,9 C 26,8 C 0,0 km/h
07.06.2010 15:00 29,2 C 41 % 1011,3 hPa 0,0 l/m 5,2 km/h NO 14,6 C 29,2 C 2,9 km/h
07.06.2010 16:00 32,1 C 34 % 1010,5 hPa 0,0 l/m 0,0 km/h N-NW 14,2 C 32,1 C 0,0 km/h
07.06.2010 17:00 32,5 C 31 % 1010,0 hPa 0,0 l/m 0,0 km/h NW 13,2 C 32,5 C 0,0 km/h
07.06.2010 18:00 30,1 C 37 % 1009,6 hPa 0,0 l/m 0,0 km/h N-NW 13,8 C 30,1 C 0,0 km/h
07.06.2010 19:00 23,6 C 51 % 1009,7 hPa 0,0 l/m 0,0 km/h NO 12,9 C 23,6 C 0,0 km/h
07.06.2010 20:00 21,9 C 59 % 1009,8 hPa 0,0 l/m 0,0 km/h S-SO 13,5 C 21,9 C 0,0 km/h
07.06.2010 21:00 17,4 C 72 % 1010,0 hPa 0,0 l/m 0,0 km/h S-SO 12,3 C 17,4 C 0,0 km/h
07.06.2010 22:00 15,9 C 77 % 1010,0 hPa 0,0 l/m 0,0 km/h O 11,9 C 15,9 C 0,0 km/h
07.06.2010 23:00 14,6 C 83 % 1010,0 hPa 0,0 l/m 0,0 km/h NO 11,7 C 14,6 C 0,0 km/h
08.06.2010 00:00 13,7 C 85 % 1009,3 hPa 0,0 l/m 0,0 km/h NO 11,2 C 13,7 C 0,0 km/h
08.06.2010 01:00 13,0 C 87 % 1008,9 hPa 0,0 l/m 0,0 km/h SO 10,9 C 13,0 C 0,0 km/h
08.06.2010 02:00 12,3 C 88 % 1008,4 hPa 0,0 l/m 0,0 km/h SO 10,4 C 12,3 C 0,0 km/h
08.06.2010 03:00 12,1 C 89 % 1007,8 hPa 0,0 l/m 0,0 km/h S-SO 10,3 C 12,1 C 0,0 km/h
08.06.2010 04:00 11,7 C 90 % 1007,9 hPa 0,0 l/m 0,0 km/h NO 10,1 C 11,7 C 0,0 km/h
08.06.2010 05:00 11,6 C 90 % 1007,9 hPa 0,0 l/m 0,0 km/h O-SO 10,0 C 11,6 C 0,0 km/h
08.06.2010 06:00 13,8 C 88 % 1008,2 hPa 0,0 l/m 0,0 km/h SO 11,8 C 13,8 C 0,0 km/h
08.06.2010 07:00 15,3 C 88 % 1007,7 hPa 0,4 l/m 0,0 km/h SO 13,3 C 15,3 C 0,0 km/h
08.06.2010 08:00 23,9 C 67 % 1007,2 hPa 0,0 l/m 0,0 km/h W-SW 17,4 C 23,9 C 0,0 km/h
08.06.2010 09:00 27,2 C 57 % 1007,2 hPa 0,0 l/m 0,0 km/h W-SW 17,9 C 27,2 C 0,0 km/h
08.06.2010 10:00 28,3 C 52 % 1006,9 hPa 0,0 l/m 0,0 km/h W-SW 17,5 C 28,3 C 0,0 km/h
08.06.2010 11:00 28,9 C 52 % 1006,9 hPa 0,0 l/m 0,0 km/h W 18,0 C 28,9 C 0,0 km/h
08.06.2010 12:00 28,3 C 52 % 1006,9 hPa 0,0 l/m 7,1 km/h S-SW 17,5 C 28,2 C 4,0 km/h
08.06.2010 13:00 28,3 C 54 % 1006,5 hPa 0,0 l/m 16,2 km/h W-SW 18,1 C 27,2 C 9,0 km/h
08.06.2010 14:00 27,9 C 52 % 1006,4 hPa 0,0 l/m 23,3 km/h S-SW 17,1 C 26,2 C 13,0 km/h
08.06.2010 15:00 23,1 C 64 % 1006,6 hPa 0,0 l/m 11,7 km/h S-SO 15,9 C 21,7 C 6,5 km/h
08.06.2010 16:00 25,8 C 59 % 1006,0 hPa 0,0 l/m 2,6 km/h S-SO 17,2 C 25,8 C 1,4 km/h
08.06.2010 17:00 23,6 C 64 % 1006,1 hPa 0,0 l/m 0,0 km/h S-SO 16,4 C 23,6 C 0,0 km/h
08.06.2010 18:00 23,1 C 64 % 1005,9 hPa 0,0 l/m 0,0 km/h SO 15,9 C 23,1 C 0,0 km/h
08.06.2010 19:00 21,4 C 67 % 1005,9 hPa 0,0 l/m 0,0 km/h O-NO 15,0 C 21,4 C 0,0 km/h
08.06.2010 20:00 19,4 C 75 % 1006,5 hPa 0,0 l/m 0,0 km/h S-SO 14,8 C 19,4 C 0,0 km/h
08.06.2010 21:00 17,3 C 86 % 1006,8 hPa 0,7 l/m 0,0 km/h O-SO 14,9 C 17,3 C 0,0 km/h
08.06.2010 22:00 16,9 C 87 % 1006,6 hPa 0,0 l/m 0,0 km/h NO 14,7 C 16,9 C 0,0 km/h
08.06.2010 23:00 16,9 C 88 % 1006,1 hPa 0,0 l/m 0,0 km/h S-SO 14,9 C 16,9 C 0,0 km/h
09.06.2010 00:00 16,7 C 90 % 1006,2 hPa 0,0 l/m 0,6 km/h O-NO 15,0 C 16,7 C 0,4 km/h
09.06.2010 01:00 16,3 C 90 % 1006,2 hPa 0,0 l/m 0,0 km/h SO 14,7 C 16,3 C 0,0 km/h
09.06.2010 02:00 16,2 C 91 % 1005,8 hPa 0,0 l/m 0,0 km/h S-SO 14,7 C 16,2 C 0,0 km/h
09.06.2010 03:00 16,3 C 90 % 1005,5 hPa 0,0 l/m 0,0 km/h O-SO 14,7 C 16,3 C 0,0 km/h
09.06.2010 04:00 15,9 C 91 % 1005,1 hPa 0,0 l/m 0,0 km/h W-SW 14,4 C 15,9 C 0,0 km/h
09.06.2010 05:00 16,0 C 92 % 1005,3 hPa 0,0 l/m 0,0 km/h W 14,7 C 16,0 C 0,0 km/h
09.06.2010 06:00 17,9 C 90 % 1005,3 hPa 0,0 l/m 0,0 km/h W-SW 16,2 C 17,9 C 0,0 km/h
09.06.2010 07:00 20,7 C 84 % 1005,4 hPa 0,0 l/m 3,9 km/h W-SW 17,9 C 20,7 C 2,2 km/h
09.06.2010 08:00 28,8 C 60 % 1005,5 hPa 0,0 l/m 0,0 km/h S-SW 20,2 C 28,8 C 0,0 km/h
09.06.2010 09:00 30,6 C 51 % 1005,0 hPa 0,0 l/m 0,0 km/h W 19,3 C 30,6 C 0,0 km/h
09.06.2010 10:00 27,4 C 61 % 1004,6 hPa 0,0 l/m 0,0 km/h N-NW 19,2 C 27,4 C 0,0 km/h
09.06.2010 11:00 28,9 C 57 % 1004,4 hPa 0,0 l/m 0,0 km/h NW 19,5 C 28,9 C 0,0 km/h
09.06.2010 12:00 29,5 C 57 % 1003,9 hPa 0,0 l/m 0,0 km/h N-NW 20,1 C 29,5 C 0,0 km/h
09.06.2010 13:00 29,9 C 57 % 1004,0 hPa 0,0 l/m 0,0 km/h W-NW 20,4 C 29,9 C 0,0 km/h
09.06.2010 14:00 30,0 C 57 % 1003,1 hPa 0,0 l/m 0,0 km/h N-NO 20,5 C 30,0 C 0,0 km/h
09.06.2010 15:00 31,6 C 51 % 1002,5 hPa 0,0 l/m 0,0 km/h N 20,2 C 31,6 C 0,0 km/h
09.06.2010 16:00 33,1 C 40 % 1002,0 hPa 0,0 l/m 0,0 km/h N-NO 17,7 C 33,1 C 0,0 km/h
09.06.2010 17:00 33,4 C 42 % 1001,6 hPa 0,0 l/m 0,6 km/h N-NO 18,7 C 33,4 C 0,4 km/h
09.06.2010 18:00 28,5 C 49 % 1000,4 hPa 0,0 l/m 0,0 km/h N-NO 16,7 C 28,5 C 0,0 km/h
09.06.2010 19:00 25,3 C 59 % 1000,7 hPa 0,0 l/m 0,0 km/h N-NW 16,7 C 25,3 C 0,0 km/h
09.06.2010 20:00 21,9 C 63 % 1003,2 hPa 0,0 l/m 24,6 km/h N-NW 14,5 C 18,0 C 13,7 km/h
09.06.2010 21:00 19,9 C 68 % 1002,6 hPa 0,0 l/m 1,9 km/h NW 13,8 C 19,9 C 1,1 km/h
09.06.2010 22:00 18,6 C 73 % 1004,1 hPa 0,0 l/m 7,1 km/h W-NW 13,7 C 18,3 C 4,0 km/h
09.06.2010 23:00 17,0 C 80 % 1003,9 hPa 0,0 l/m 0,0 km/h W-NW 13,5 C 17,0 C 0,0 km/h
10.06.2010 00:00 16,3 C 85 % 1003,9 hPa 0,0 l/m 0,0 km/h W-SW 13,8 C 16,3 C 0,0 km/h
10.06.2010 01:00 15,6 C 87 % 1003,8 hPa 0,0 l/m 0,0 km/h W 13,4 C 15,6 C 0,0 km/h
10.06.2010 02:00 15,8 C 89 % 1004,2 hPa 0,0 l/m 0,0 km/h NO 14,0 C 15,8 C 0,0 km/h
10.06.2010 03:00 15,6 C 90 % 1003,6 hPa 0,0 l/m 0,0 km/h N-NW 14,0 C 15,6 C 0,0 km/h
10.06.2010 04:00 15,7 C 91 % 1004,0 hPa 0,0 l/m 0,0 km/h W 14,2 C 15,7 C 0,0 km/h
10.06.2010 05:00 15,4 C 91 % 1003,5 hPa 0,0 l/m 0,0 km/h N-NO 13,9 C 15,4 C 0,0 km/h
10.06.2010 06:00 15,9 C 92 % 1003,9 hPa 0,0 l/m 0,0 km/h W-SW 14,6 C 15,9 C 0,0 km/h
10.06.2010 07:00 18,1 C 90 % 1003,4 hPa 0,0 l/m 5,2 km/h W 16,4 C 18,1 C 2,9 km/h
10.06.2010 08:00 23,5 C 74 % 1003,5 hPa 0,0 l/m 0,0 km/h W 18,6 C 23,5 C 0,0 km/h
10.06.2010 09:00 28,4 C 57 % 1003,4 hPa 0,0 l/m 0,0 km/h W-SW 19,0 C 28,4 C 0,0 km/h
10.06.2010 10:00 29,5 C 55 % 1003,2 hPa 0,0 l/m 2,6 km/h W 19,5 C 29,5 C 1,4 km/h
10.06.2010 11:00 28,1 C 60 % 1003,1 hPa 0,0 l/m 0,0 km/h W 19,6 C 28,1 C 0,0 km/h
10.06.2010 12:00 28,1 C 60 % 1002,5 hPa 0,0 l/m 0,0 km/h N-NW 19,6 C 28,1 C 0,0 km/h
10.06.2010 13:00 29,9 C 60 % 1002,1 hPa 0,0 l/m 0,0 km/h W 21,3 C 29,9 C 0,0 km/h
10.06.2010 14:00 31,6 C 57 % 1001,8 hPa 0,0 l/m 0,6 km/h W 22,0 C 31,6 C 0,4 km/h
10.06.2010 15:00 34,9 C 52 % 1001,6 hPa 0,0 l/m 3,2 km/h W-SW 23,5 C 34,9 C 1,8 km/h
10.06.2010 16:00 36,8 C 45 % 1001,0 hPa 0,0 l/m 3,2 km/h NW 22,9 C 36,8 C 1,8 km/h
10.06.2010 17:00 36,1 C 44 % 1000,9 hPa 0,0 l/m 1,9 km/h N 21,9 C 36,1 C 1,1 km/h
10.06.2010 18:00 34,6 C 47 % 1000,8 hPa 0,0 l/m 0,0 km/h N 21,6 C 34,6 C 0,0 km/h
10.06.2010 19:00 28,9 C 58 % 1001,4 hPa 0,0 l/m 0,0 km/h N-NO 19,8 C 28,9 C 0,0 km/h
10.06.2010 20:00 25,3 C 68 % 1001,8 hPa 0,0 l/m 0,0 km/h N-NO 19,0 C 25,3 C 0,0 km/h
10.06.2010 21:00 24,7 C 67 % 1002,9 hPa 0,0 l/m 0,0 km/h N-NO 18,1 C 24,7 C 0,0 km/h
10.06.2010 22:00 22,4 C 68 % 1003,7 hPa 0,0 l/m 0,0 km/h O-SO 16,2 C 22,4 C 0,0 km/h
10.06.2010 23:00 21,8 C 66 % 1005,5 hPa 0,0 l/m 0,0 km/h N-NO 15,2 C 21,8 C 0,0 km/h
11.06.2010 00:00 19,6 C 72 % 1005,8 hPa 0,0 l/m 0,0 km/h N-NO 14,4 C 19,6 C 0,0 km/h
11.06.2010 01:00 17,8 C 78 % 1005,3 hPa 0,0 l/m 0,0 km/h NW 13,9 C 17,8 C 0,0 km/h
11.06.2010 02:00 16,3 C 82 % 1006,3 hPa 0,0 l/m 0,0 km/h N-NO 13,2 C 16,3 C 0,0 km/h
11.06.2010 03:00 15,6 C 87 % 1006,4 hPa 0,0 l/m 0,0 km/h O-SO 13,4 C 15,6 C 0,0 km/h
11.06.2010 04:00 15,3 C 88 % 1006,7 hPa 0,0 l/m 0,0 km/h W 13,3 C 15,3 C 0,0 km/h
11.06.2010 05:00 16,1 C 90 % 1007,7 hPa 1,8 l/m 0,0 km/h SO 14,5 C 16,1 C 0,0 km/h
11.06.2010 06:00 16,6 C 91 % 1008,2 hPa 0,0 l/m 0,0 km/h SO 15,1 C 16,6 C 0,0 km/h
11.06.2010 07:00 16,9 C 91 % 1008,2 hPa 0,0 l/m 0,0 km/h S-SO 15,4 C 16,9 C 0,0 km/h
11.06.2010 08:00 17,8 C 90 % 1008,7 hPa 0,0 l/m 0,0 km/h S-SO 16,1 C 17,8 C 0,0 km/h
11.06.2010 09:00 20,5 C 86 % 1008,9 hPa 0,0 l/m 0,0 km/h S-SO 18,1 C 20,5 C 0,0 km/h
11.06.2010 10:00 22,6 C 79 % 1009,0 hPa 0,0 l/m 0,0 km/h O-SO 18,8 C 22,6 C 0,0 km/h
11.06.2010 11:00 25,1 C 70 % 1008,7 hPa 0,0 l/m 0,0 km/h SO 19,2 C 25,1 C 0,0 km/h
11.06.2010 12:00 25,9 C 62 % 1008,6 hPa 0,0 l/m 3,2 km/h SO 18,0 C 25,9 C 1,8 km/h
11.06.2010 13:00 28,9 C 57 % 1008,7 hPa 0,0 l/m 10,4 km/h SW 19,5 C 28,4 C 5,8 km/h
11.06.2010 14:00 31,3 C 49 % 1008,5 hPa 0,0 l/m 0,0 km/h W-SW 19,3 C 31,3 C 0,0 km/h
11.06.2010 15:00 32,4 C 44 % 1008,5 hPa 0,0 l/m 3,2 km/h W 18,5 C 32,4 C 1,8 km/h
11.06.2010 16:00 27,5 C 52 % 1008,4 hPa 0,0 l/m 0,0 km/h W-NW 16,7 C 27,5 C 0,0 km/h
11.06.2010 17:00 30,4 C 49 % 1008,4 hPa 0,0 l/m 0,0 km/h W 18,5 C 30,4 C 0,0 km/h
11.06.2010 18:00 25,8 C 62 % 1008,2 hPa 0,0 l/m 0,0 km/h W 18,0 C 25,8 C 0,0 km/h
11.06.2010 19:00 23,1 C 70 % 1008,2 hPa 0,0 l/m 0,0 km/h O-NO 17,3 C 23,1 C 0,0 km/h
11.06.2010 20:00 20,8 C 76 % 1008,2 hPa 0,0 l/m 0,0 km/h SO 16,4 C 20,8 C 0,0 km/h
11.06.2010 21:00 18,9 C 81 % 1008,5 hPa 0,0 l/m 0,0 km/h O-NO 15,6 C 18,9 C 0,0 km/h
11.06.2010 22:00 18,9 C 81 % 1008,9 hPa 0,0 l/m 0,0 km/h SW 15,6 C 18,9 C 0,0 km/h
11.06.2010 23:00 18,8 C 82 % 1008,6 hPa 0,0 l/m 0,0 km/h N-NO 15,7 C 18,8 C 0,0 km/h
12.06.2010 00:00 18,3 C 84 % 1009,3 hPa 0,0 l/m 0,0 km/h N-NO 15,5 C 18,3 C 0,0 km/h
12.06.2010 01:00 18,7 C 80 % 1009,2 hPa 0,0 l/m 0,0 km/h W 15,2 C 18,7 C 0,0 km/h
12.06.2010 02:00 18,4 C 76 % 1009,4 hPa 0,0 l/m 0,0 km/h W-SW 14,1 C 18,4 C 0,0 km/h
12.06.2010 03:00 17,3 C 78 % 1009,9 hPa 0,0 l/m 0,0 km/h W-SW 13,4 C 17,3 C 0,0 km/h
12.06.2010 04:00 16,8 C 80 % 1010,4 hPa 0,0 l/m 6,5 km/h W 13,3 C 16,8 C 3,6 km/h
12.06.2010 05:00 16,5 C 81 % 1010,6 hPa 0,0 l/m 1,9 km/h W 13,2 C 16,5 C 1,1 km/h
12.06.2010 06:00 16,9 C 79 % 1010,9 hPa 0,0 l/m 16,8 km/h S-SO 13,2 C 13,0 C 9,4 km/h
12.06.2010 07:00 16,9 C 80 % 1010,6 hPa 0,0 l/m 0,0 km/h S 13,4 C 16,9 C 0,0 km/h
12.06.2010 08:00 18,2 C 79 % 1010,5 hPa 0,0 l/m 0,0 km/h W 14,5 C 18,2 C 0,0 km/h
12.06.2010 09:00 18,4 C 77 % 1010,5 hPa 0,0 l/m 0,0 km/h W-SW 14,3 C 18,4 C 0,0 km/h
12.06.2010 10:00 19,3 C 73 % 1010,9 hPa 0,0 l/m 0,0 km/h W 14,3 C 19,3 C 0,0 km/h
12.06.2010 11:00 22,1 C 64 % 1011,2 hPa 0,0 l/m 0,0 km/h SW 15,0 C 22,1 C 0,0 km/h
12.06.2010 12:00 22,9 C 61 % 1011,3 hPa 0,0 l/m 13,6 km/h W 15,0 C 21,0 C 7,6 km/h
12.06.2010 13:00 24,0 C 58 % 1011,2 hPa 0,0 l/m 18,8 km/h W 15,2 C 21,5 C 10,4 km/h
12.06.2010 14:00 26,3 C 53 % 1010,7 hPa 0,0 l/m 5,8 km/h W-SW 15,9 C 26,3 C 3,2 km/h
12.06.2010 15:00 26,6 C 52 % 1010,8 hPa 0,0 l/m 0,0 km/h S-SW 15,9 C 26,6 C 0,0 km/h
12.06.2010 16:00 30,1 C 46 % 1010,5 hPa 0,0 l/m 13,0 km/h W 17,2 C 29,6 C 7,2 km/h
12.06.2010 17:00 26,3 C 52 % 1010,5 hPa 0,0 l/m 4,5 km/h W-SW 15,6 C 26,3 C 2,5 km/h
12.06.2010 18:00 28,6 C 46 % 1010,3 hPa 0,0 l/m 14,3 km/h W-SW 15,8 C 27,7 C 7,9 km/h
12.06.2010 19:00 23,2 C 56 % 1010,4 hPa 0,0 l/m 3,9 km/h W 13,9 C 23,2 C 2,2 km/h
12.06.2010 20:00 20,2 C 66 % 1010,5 hPa 0,0 l/m 0,0 km/h O-NO 13,6 C 20,2 C 0,0 km/h
12.06.2010 21:00 18,6 C 74 % 1011,3 hPa 0,0 l/m 0,0 km/h NO 13,9 C 18,6 C 0,0 km/h
12.06.2010 22:00 17,8 C 78 % 1011,9 hPa 0,0 l/m 0,0 km/h N-NO 13,9 C 17,8 C 0,0 km/h
12.06.2010 23:00 18,5 C 77 % 1012,3 hPa 0,0 l/m 0,0 km/h N 14,4 C 18,5 C 0,0 km/h
13.06.2010 00:00 17,4 C 77 % 1012,4 hPa 0,0 l/m 0,0 km/h N 13,3 C 17,4 C 0,0 km/h
13.06.2010 01:00 17,2 C 79 % 1012,6 hPa 0,0 l/m 0,0 km/h NW 13,5 C 17,2 C 0,0 km/h
13.06.2010 02:00 16,5 C 81 % 1012,7 hPa 0,0 l/m 2,6 km/h W-NW 13,2 C 16,5 C 1,4 km/h
13.06.2010 03:00 14,7 C 84 % 1012,7 hPa 0,0 l/m 1,3 km/h W-SW 12,0 C 14,7 C 0,7 km/h
13.06.2010 04:00 14,4 C 85 % 1012,8 hPa 0,0 l/m 0,0 km/h W 11,9 C 14,4 C 0,0 km/h
13.06.2010 05:00 13,9 C 86 % 1012,8 hPa 0,0 l/m 0,0 km/h W-NW 11,6 C 13,9 C 0,0 km/h
13.06.2010 06:00 14,7 C 83 % 1013,2 hPa 0,0 l/m 0,0 km/h W-SW 11,8 C 14,7 C 0,0 km/h
13.06.2010 07:00 15,2 C 84 % 1013,2 hPa 0,0 l/m 0,0 km/h W 12,5 C 15,2 C 0,0 km/h
13.06.2010 08:00 16,2 C 81 % 1013,5 hPa 0,0 l/m 0,0 km/h NO 12,9 C 16,2 C 0,0 km/h
13.06.2010 09:00 17,2 C 77 % 1013,3 hPa 0,0 l/m 0,0 km/h W 13,1 C 17,2 C 0,0 km/h
13.06.2010 10:00 17,1 C 77 % 1012,9 hPa 0,0 l/m 0,0 km/h SW 13,0 C 17,1 C 0,0 km/h
13.06.2010 11:00 19,3 C 72 % 1013,5 hPa 0,0 l/m 0,0 km/h SW 14,1 C 19,3 C 0,0 km/h
13.06.2010 12:00 20,9 C 68 % 1012,9 hPa 0,0 l/m 0,0 km/h W 14,8 C 20,9 C 0,0 km/h
13.06.2010 13:00 19,9 C 69 % 1012,5 hPa 0,0 l/m 0,0 km/h NW 14,0 C 19,9 C 0,0 km/h
13.06.2010 14:00 19,5 C 69 % 1012,5 hPa 0,0 l/m 7,8 km/h W 13,7 C 18,9 C 4,3 km/h
13.06.2010 15:00 21,9 C 63 % 1011,8 hPa 0,0 l/m 0,0 km/h N-NO 14,5 C 21,9 C 0,0 km/h
13.06.2010 16:00 19,2 C 71 % 1011,3 hPa 0,0 l/m 2,6 km/h N-NW 13,8 C 19,2 C 1,4 km/h
13.06.2010 17:00 18,4 C 72 % 1011,1 hPa 0,0 l/m 0,0 km/h W-NW 13,3 C 18,4 C 0,0 km/h
13.06.2010 18:00 17,8 C 75 % 1011,0 hPa 0,0 l/m 0,0 km/h N-NO 13,3 C 17,8 C 0,0 km/h
13.06.2010 19:00 16,9 C 77 % 1011,2 hPa 0,0 l/m 0,0 km/h W-NW 12,8 C 16,9 C 0,0 km/h
13.06.2010 20:00 15,9 C 81 % 1011,2 hPa 0,0 l/m 0,0 km/h W 12,6 C 15,9 C 0,0 km/h
13.06.2010 21:00 15,3 C 84 % 1011,2 hPa 0,0 l/m 0,0 km/h W-SW 12,6 C 15,3 C 0,0 km/h
13.06.2010 22:00 14,9 C 86 % 1011,6 hPa 0,0 l/m 0,0 km/h W-SW 12,6 C 14,9 C 0,0 km/h
13.06.2010 23:00 13,4 C 87 % 1011,6 hPa 0,0 l/m 0,0 km/h W-SW 11,3 C 13,4 C 0,0 km/h
Min-Datum _ 08.06.10 07.06.10 09.06.10 - 07.06.10 - 08.06.10 08.06.10 07.06.10
_ Min-Zeit 05:53 17:53 18:53 - 03:53 - 05:53 05:53 03:53
Minimum _ 11,6 C 31 % 1000,4 hPa - 0,0 km/h - 10,0 C 11,6 C 0,0 km/h
Max-Datum _ 10.06.10 09.06.10 07.06.10 11.06.10 09.06.10 - 10.06.10 10.06.10 09.06.10
_ Max-Zeit 16:53 05:53 09:53 05:53 20:53 - 15:53 16:53 20:53
Maximum _ 36,8 C 92 % 1014,2 hPa 1,8 l/m 24,6 km/h
N-NW
- 23,5 C 36,8 C 13,7 km/h
N-NW
Durchschnitt _ 21,4 C 71 % 1008,1 hPa #2,8 l/m 2,3 km/h W 15,4 C 21,2 C 1,3 km/h